sensor_id;sensor_type;location;lat;lon;timestamp;temperature;humidity
5059;DHT22;2548;52.050;11.036;2022-10-31T00:00:43;10.70;99.90
5059;DHT22;2548;52.050;11.036;2022-10-31T00:03:10;10.80;99.90
5059;DHT22;2548;52.050;11.036;2022-10-31T00:05:41;10.90;99.90
5059;DHT22;2548;52.050;11.036;2022-10-31T00:08:09;10.90;99.90
5059;DHT22;2548;52.050;11.036;2022-10-31T00:10:38;10.90;99.90
5059;DHT22;2548;52.050;11.036;2022-10-31T00:13:06;10.90;99.90
5059;DHT22;2548;52.050;11.036;2022-10-31T00:15:33;11.00;99.90
5059;DHT22;2548;52.050;11.036;2022-10-31T00:18:01;11.00;99.90
5059;DHT22;2548;52.050;11.036;2022-10-31T00:20:29;11.00;99.90
5059;DHT22;2548;52.050;11.036;2022-10-31T00:22:59;11.00;99.90
5059;DHT22;2548;52.050;11.036;2022-10-31T00:25:28;11.00;99.90
5059;DHT22;2548;52.050;11.036;2022-10-31T00:27:55;10.90;99.90
5059;DHT22;2548;52.050;11.036;2022-10-31T00:30:23;10.80;99.90
5059;DHT22;2548;52.050;11.036;2022-10-31T00:32:50;10.70;99.90
5059;DHT22;2548;52.050;11.036;2022-10-31T00:35:18;10.60;99.90
5059;DHT22;2548;52.050;11.036;2022-10-31T00:37:45;10.50;99.90
5059;DHT22;2548;52.050;11.036;2022-10-31T00:40:14;10.20;99.90
5059;DHT22;2548;52.050;11.036;2022-10-31T00:42:42;10.00;99.90
5059;DHT22;2548;52.050;11.036;2022-10-31T00:45:09;9.90;99.90
5059;DHT22;2548;52.050;11.036;2022-10-31T00:47:37;9.80;99.90
5059;DHT22;2548;52.050;11.036;2022-10-31T00:50:05;9.70;99.90
5059;DHT22;2548;52.050;11.036;2022-10-31T00:52:33;9.60;99.90
5059;DHT22;2548;52.050;11.036;2022-10-31T00:55:00;9.50;99.90
5059;DHT22;2548;52.050;11.036;2022-10-31T00:57:29;9.50;99.90
5059;DHT22;2548;52.050;11.036;2022-10-31T00:59:57;9.50;99.90
5059;DHT22;2548;52.050;11.036;2022-10-31T01:02:24;9.60;99.90
5059;DHT22;2548;52.050;11.036;2022-10-31T01:04:51;9.50;99.90
5059;DHT22;2548;52.050;11.036;2022-10-31T01:07:20;9.50;99.90
5059;DHT22;2548;52.050;11.036;2022-10-31T01:09:48;9.60;99.90
5059;DHT22;2548;52.050;11.036;2022-10-31T01:12:15;9.70;99.90
5059;DHT22;2548;52.050;11.036;2022-10-31T01:14:44;9.70;99.90
5059;DHT22;2548;52.050;11.036;2022-10-31T01:17:12;9.70;99.90
5059;DHT22;2548;52.050;11.036;2022-10-31T01:19:40;9.80;99.90
5059;DHT22;2548;52.050;11.036;2022-10-31T01:22:07;9.80;99.90
5059;DHT22;2548;52.050;11.036;2022-10-31T01:24:34;9.80;99.90
5059;DHT22;2548;52.050;11.036;2022-10-31T01:27:02;9.80;99.90
5059;DHT22;2548;52.050;11.036;2022-10-31T01:29:33;10.00;99.90
5059;DHT22;2548;52.050;11.036;2022-10-31T01:32:02;10.10;99.90
5059;DHT22;2548;52.050;11.036;2022-10-31T01:34:29;10.20;99.90
5059;DHT22;2548;52.050;11.036;2022-10-31T01:36:57;10.20;99.90
5059;DHT22;2548;52.050;11.036;2022-10-31T01:39:24;10.30;99.90
5059;DHT22;2548;52.050;11.036;2022-10-31T01:41:52;10.30;99.90
5059;DHT22;2548;52.050;11.036;2022-10-31T01:44:50;10.30;99.90
5059;DHT22;2548;52.050;11.036;2022-10-31T01:47:31;10.40;99.90
5059;DHT22;2548;52.050;11.036;2022-10-31T01:50:02;10.40;99.90
5059;DHT22;2548;52.050;11.036;2022-10-31T01:52:32;10.30;99.90
5059;DHT22;2548;52.050;11.036;2022-10-31T01:55:03;10.30;99.90
5059;DHT22;2548;52.050;11.036;2022-10-31T01:57:32;10.20;99.90
5059;DHT22;2548;52.050;11.036;2022-10-31T02:00:03;10.20;99.90
5059;DHT22;2548;52.050;11.036;2022-10-31T02:02:41;10.10;99.90
5059;DHT22;2548;52.050;11.036;2022-10-31T02:05:14;10.10;99.90
5059;DHT22;2548;52.050;11.036;2022-10-31T02:07:47;10.00;99.90
5059;DHT22;2548;52.050;11.036;2022-10-31T02:10:16;10.00;99.90
5059;DHT22;2548;52.050;11.036;2022-10-31T02:12:46;9.90;99.90
5059;DHT22;2548;52.050;11.036;2022-10-31T02:15:15;9.90;99.90
5059;DHT22;2548;52.050;11.036;2022-10-31T02:17:44;9.80;99.90
5059;DHT22;2548;52.050;11.036;2022-10-31T02:20:15;9.80;99.90
5059;DHT22;2548;52.050;11.036;2022-10-31T02:25:56;10.00;99.90
5059;DHT22;2548;52.050;11.036;2022-10-31T02:28:40;10.10;99.90
5059;DHT22;2548;52.050;11.036;2022-10-31T02:31:22;10.20;99.90
5059;DHT22;2548;52.050;11.036;2022-10-31T02:33:54;10.30;99.90
5059;DHT22;2548;52.050;11.036;2022-10-31T02:36:26;10.30;99.90
5059;DHT22;2548;52.050;11.036;2022-10-31T02:39:06;10.30;99.90
5059;DHT22;2548;52.050;11.036;2022-10-31T02:41:48;10.30;99.90
5059;DHT22;2548;52.050;11.036;2022-10-31T02:44:21;10.20;99.90
5059;DHT22;2548;52.050;11.036;2022-10-31T02:46:53;10.20;99.90
5059;DHT22;2548;52.050;11.036;2022-10-31T02:49:35;10.30;99.90
5059;DHT22;2548;52.050;11.036;2022-10-31T02:52:13;10.30;99.90
5059;DHT22;2548;52.050;11.036;2022-10-31T02:54:42;10.40;99.90
5059;DHT22;2548;52.050;11.036;2022-10-31T02:57:10;10.40;99.90
5059;DHT22;2548;52.050;11.036;2022-10-31T02:59:45;10.40;99.90
5059;DHT22;2548;52.050;11.036;2022-10-31T03:02:34;10.30;99.90
5059;DHT22;2548;52.050;11.036;2022-10-31T03:05:32;10.30;99.90
5059;DHT22;2548;52.050;11.036;2022-10-31T03:08:11;10.20;99.90
5059;DHT22;2548;52.050;11.036;2022-10-31T03:10:43;10.20;99.90
5059;DHT22;2548;52.050;11.036;2022-10-31T03:13:20;10.20;99.90
5059;DHT22;2548;52.050;11.036;2022-10-31T03:15:51;10.20;99.90
5059;DHT22;2548;52.050;11.036;2022-10-31T03:18:23;10.20;99.90
5059;DHT22;2548;52.050;11.036;2022-10-31T03:20:58;10.30;99.90
5059;DHT22;2548;52.050;11.036;2022-10-31T03:23:26;10.30;99.90
5059;DHT22;2548;52.050;11.036;2022-10-31T03:25:55;10.30;99.90
5059;DHT22;2548;52.050;11.036;2022-10-31T03:28:28;10.30;99.90
5059;DHT22;2548;52.050;11.036;2022-10-31T03:30:57;10.40;99.90
5059;DHT22;2548;52.050;11.036;2022-10-31T03:33:30;10.40;99.90
5059;DHT22;2548;52.050;11.036;2022-10-31T03:36:00;10.40;99.90
5059;DHT22;2548;52.050;11.036;2022-10-31T03:38:31;10.40;99.90
5059;DHT22;2548;52.050;11.036;2022-10-31T03:41:02;10.30;99.90
5059;DHT22;2548;52.050;11.036;2022-10-31T03:43:36;10.30;99.90
5059;DHT22;2548;52.050;11.036;2022-10-31T03:46:05;10.20;99.90
5059;DHT22;2548;52.050;11.036;2022-10-31T03:48:34;10.30;99.90
5059;DHT22;2548;52.050;11.036;2022-10-31T03:51:07;10.30;99.90
5059;DHT22;2548;52.050;11.036;2022-10-31T03:53:40;10.40;99.90
5059;DHT22;2548;52.050;11.036;2022-10-31T03:56:17;10.40;99.90
5059;DHT22;2548;52.050;11.036;2022-10-31T03:58:49;10.50;99.90
5059;DHT22;2548;52.050;11.036;2022-10-31T04:01:18;10.50;99.90
5059;DHT22;2548;52.050;11.036;2022-10-31T04:03:48;10.60;99.90
5059;DHT22;2548;52.050;11.036;2022-10-31T04:06:18;10.60;99.90
5059;DHT22;2548;52.050;11.036;2022-10-31T04:08:49;10.50;99.90
5059;DHT22;2548;52.050;11.036;2022-10-31T04:11:21;10.50;99.90
5059;DHT22;2548;52.050;11.036;2022-10-31T04:14:11;10.50;99.90
5059;DHT22;2548;52.050;11.036;2022-10-31T04:16:40;10.50;99.90
5059;DHT22;2548;52.050;11.036;2022-10-31T04:19:10;10.50;99.90
5059;DHT22;2548;52.050;11.036;2022-10-31T04:21:37;10.50;99.90
5059;DHT22;2548;52.050;11.036;2022-10-31T04:24:05;10.60;99.90
5059;DHT22;2548;52.050;11.036;2022-10-31T04:26:33;10.70;99.90
5059;DHT22;2548;52.050;11.036;2022-10-31T04:29:00;10.70;99.90
5059;DHT22;2548;52.050;11.036;2022-10-31T04:31:28;10.70;99.90
5059;DHT22;2548;52.050;11.036;2022-10-31T04:33:56;10.70;99.90
5059;DHT22;2548;52.050;11.036;2022-10-31T04:36:25;10.70;99.90
5059;DHT22;2548;52.050;11.036;2022-10-31T04:38:53;10.70;99.90
5059;DHT22;2548;52.050;11.036;2022-10-31T04:41:45;10.80;99.90
5059;DHT22;2548;52.050;11.036;2022-10-31T04:44:15;10.80;99.90
5059;DHT22;2548;52.050;11.036;2022-10-31T04:46:43;10.90;99.90
5059;DHT22;2548;52.050;11.036;2022-10-31T04:49:11;10.90;99.90
5059;DHT22;2548;52.050;11.036;2022-10-31T04:51:40;11.00;99.90
5059;DHT22;2548;52.050;11.036;2022-10-31T04:54:08;11.00;99.90
5059;DHT22;2548;52.050;11.036;2022-10-31T04:56:54;11.10;99.90
5059;DHT22;2548;52.050;11.036;2022-10-31T04:59:22;11.10;99.90
5059;DHT22;2548;52.050;11.036;2022-10-31T05:01:53;11.10;99.90
5059;DHT22;2548;52.050;11.036;2022-10-31T05:04:38;11.10;99.90
5059;DHT22;2548;52.050;11.036;2022-10-31T05:07:08;11.10;99.90
5059;DHT22;2548;52.050;11.036;2022-10-31T05:09:35;11.10;99.90
5059;DHT22;2548;52.050;11.036;2022-10-31T05:12:03;11.10;99.90
5059;DHT22;2548;52.050;11.036;2022-10-31T05:14:49;11.10;99.90
5059;DHT22;2548;52.050;11.036;2022-10-31T05:17:35;11.10;99.90
5059;DHT22;2548;52.050;11.036;2022-10-31T05:20:30;11.20;99.90
5059;DHT22;2548;52.050;11.036;2022-10-31T05:23:22;11.30;99.90
5059;DHT22;2548;52.050;11.036;2022-10-31T05:25:49;11.30;99.90
5059;DHT22;2548;52.050;11.036;2022-10-31T05:28:17;11.20;99.90
5059;DHT22;2548;52.050;11.036;2022-10-31T05:30:45;11.10;99.90
5059;DHT22;2548;52.050;11.036;2022-10-31T05:33:15;11.00;99.90
5059;DHT22;2548;52.050;11.036;2022-10-31T05:36:01;11.00;99.90
5059;DHT22;2548;52.050;11.036;2022-10-31T05:38:35;10.90;99.90
5059;DHT22;2548;52.050;11.036;2022-10-31T05:41:20;10.90;99.90
5059;DHT22;2548;52.050;11.036;2022-10-31T05:43:48;10.90;99.90
5059;DHT22;2548;52.050;11.036;2022-10-31T05:46:19;10.90;99.90
5059;DHT22;2548;52.050;11.036;2022-10-31T05:49:05;10.90;99.90
5059;DHT22;2548;52.050;11.036;2022-10-31T05:51:50;10.90;99.90
5059;DHT22;2548;52.050;11.036;2022-10-31T05:54:21;10.90;99.90
5059;DHT22;2548;52.050;11.036;2022-10-31T05:56:49;10.90;99.90
5059;DHT22;2548;52.050;11.036;2022-10-31T05:59:18;10.80;99.90
5059;DHT22;2548;52.050;11.036;2022-10-31T06:01:45;10.80;99.90
5059;DHT22;2548;52.050;11.036;2022-10-31T06:04:26;10.80;99.90
5059;DHT22;2548;52.050;11.036;2022-10-31T06:06:53;10.90;99.90
5059;DHT22;2548;52.050;11.036;2022-10-31T06:09:23;10.90;99.90
5059;DHT22;2548;52.050;11.036;2022-10-31T06:11:51;10.90;99.90
5059;DHT22;2548;52.050;11.036;2022-10-31T06:14:41;10.90;99.90
5059;DHT22;2548;52.050;11.036;2022-10-31T06:17:08;11.00;99.90
5059;DHT22;2548;52.050;11.036;2022-10-31T06:20:06;11.00;99.90
5059;DHT22;2548;52.050;11.036;2022-10-31T06:22:39;11.10;99.90
5059;DHT22;2548;52.050;11.036;2022-10-31T06:25:08;11.10;99.90
5059;DHT22;2548;52.050;11.036;2022-10-31T06:27:38;11.20;99.90
5059;DHT22;2548;52.050;11.036;2022-10-31T06:30:12;11.30;99.90
5059;DHT22;2548;52.050;11.036;2022-10-31T06:32:40;11.40;99.90
5059;DHT22;2548;52.050;11.036;2022-10-31T06:35:09;11.40;99.90
5059;DHT22;2548;52.050;11.036;2022-10-31T06:37:37;11.50;99.90
5059;DHT22;2548;52.050;11.036;2022-10-31T06:40:29;11.50;99.90
5059;DHT22;2548;52.050;11.036;2022-10-31T06:43:09;11.50;99.90
5059;DHT22;2548;52.050;11.036;2022-10-31T06:45:37;11.60;99.90
5059;DHT22;2548;52.050;11.036;2022-10-31T06:48:23;11.60;99.90
5059;DHT22;2548;52.050;11.036;2022-10-31T06:51:13;11.60;99.90
5059;DHT22;2548;52.050;11.036;2022-10-31T06:53:41;11.70;99.90
5059;DHT22;2548;52.050;11.036;2022-10-31T06:56:12;11.70;99.90
5059;DHT22;2548;52.050;11.036;2022-10-31T06:58:45;11.70;99.90
5059;DHT22;2548;52.050;11.036;2022-10-31T07:01:13;11.70;99.90
5059;DHT22;2548;52.050;11.036;2022-10-31T07:03:41;11.70;99.90
5059;DHT22;2548;52.050;11.036;2022-10-31T07:06:08;11.80;99.90
5059;DHT22;2548;52.050;11.036;2022-10-31T07:08:37;11.90;99.90
5059;DHT22;2548;52.050;11.036;2022-10-31T07:11:04;11.90;99.90
5059;DHT22;2548;52.050;11.036;2022-10-31T07:13:34;11.90;99.90
5059;DHT22;2548;52.050;11.036;2022-10-31T07:16:06;11.90;99.90
5059;DHT22;2548;52.050;11.036;2022-10-31T07:18:35;11.90;99.90
5059;DHT22;2548;52.050;11.036;2022-10-31T07:21:03;11.90;99.90
5059;DHT22;2548;52.050;11.036;2022-10-31T07:23:31;11.90;99.90
5059;DHT22;2548;52.050;11.036;2022-10-31T07:26:34;11.90;99.90
5059;DHT22;2548;52.050;11.036;2022-10-31T07:29:03;11.90;99.90
5059;DHT22;2548;52.050;11.036;2022-10-31T07:31:31;12.00;99.90
5059;DHT22;2548;52.050;11.036;2022-10-31T07:34:04;12.00;99.90
5059;DHT22;2548;52.050;11.036;2022-10-31T07:36:51;12.00;99.90
5059;DHT22;2548;52.050;11.036;2022-10-31T07:39:19;12.10;99.90
5059;DHT22;2548;52.050;11.036;2022-10-31T07:41:46;12.20;99.90
5059;DHT22;2548;52.050;11.036;2022-10-31T07:44:18;12.20;99.90
5059;DHT22;2548;52.050;11.036;2022-10-31T07:47:04;12.30;99.90
5059;DHT22;2548;52.050;11.036;2022-10-31T07:49:50;12.40;99.90
5059;DHT22;2548;52.050;11.036;2022-10-31T07:52:36;12.50;99.90
5059;DHT22;2548;52.050;11.036;2022-10-31T07:55:22;12.60;99.90
5059;DHT22;2548;52.050;11.036;2022-10-31T07:57:55;12.70;99.90
5059;DHT22;2548;52.050;11.036;2022-10-31T08:00:24;12.70;99.90
5059;DHT22;2548;52.050;11.036;2022-10-31T08:03:04;12.70;99.90
5059;DHT22;2548;52.050;11.036;2022-10-31T08:06:01;12.70;99.90
5059;DHT22;2548;52.050;11.036;2022-10-31T08:09:03;12.70;99.90
5059;DHT22;2548;52.050;11.036;2022-10-31T08:11:31;12.80;99.90
5059;DHT22;2548;52.050;11.036;2022-10-31T08:14:01;12.90;99.90
5059;DHT22;2548;52.050;11.036;2022-10-31T08:16:29;12.90;99.90
5059;DHT22;2548;52.050;11.036;2022-10-31T08:19:00;13.00;99.90
5059;DHT22;2548;52.050;11.036;2022-10-31T08:21:29;13.10;99.90
5059;DHT22;2548;52.050;11.036;2022-10-31T08:23:58;13.20;99.90
5059;DHT22;2548;52.050;11.036;2022-10-31T08:26:25;13.30;99.90
5059;DHT22;2548;52.050;11.036;2022-10-31T08:28:55;13.40;99.90
5059;DHT22;2548;52.050;11.036;2022-10-31T08:31:27;13.50;99.90
5059;DHT22;2548;52.050;11.036;2022-10-31T08:34:14;13.60;99.90
5059;DHT22;2548;52.050;11.036;2022-10-31T08:36:41;13.70;99.90
5059;DHT22;2548;52.050;11.036;2022-10-31T08:39:20;13.90;99.90
5059;DHT22;2548;52.050;11.036;2022-10-31T08:41:47;14.10;99.90
5059;DHT22;2548;52.050;11.036;2022-10-31T08:44:15;14.20;99.90
5059;DHT22;2548;52.050;11.036;2022-10-31T08:46:43;14.40;99.90
5059;DHT22;2548;52.050;11.036;2022-10-31T08:49:10;14.50;99.90
5059;DHT22;2548;52.050;11.036;2022-10-31T08:51:41;14.70;99.90
5059;DHT22;2548;52.050;11.036;2022-10-31T08:54:09;14.80;99.90
5059;DHT22;2548;52.050;11.036;2022-10-31T08:56:55;14.90;99.90
5059;DHT22;2548;52.050;11.036;2022-10-31T08:59:48;15.00;99.90
5059;DHT22;2548;52.050;11.036;2022-10-31T09:02:29;15.10;99.90
5059;DHT22;2548;52.050;11.036;2022-10-31T09:04:59;15.20;99.90
5059;DHT22;2548;52.050;11.036;2022-10-31T09:07:28;15.20;99.90
5059;DHT22;2548;52.050;11.036;2022-10-31T09:09:56;15.10;99.90
5059;DHT22;2548;52.050;11.036;2022-10-31T09:12:23;15.20;99.90
5059;DHT22;2548;52.050;11.036;2022-10-31T09:15:09;15.20;99.90
5059;DHT22;2548;52.050;11.036;2022-10-31T09:17:46;15.20;99.90
5059;DHT22;2548;52.050;11.036;2022-10-31T09:20:35;15.30;99.90
5059;DHT22;2548;52.050;11.036;2022-10-31T09:23:06;15.40;99.90
5059;DHT22;2548;52.050;11.036;2022-10-31T09:25:37;15.50;99.90
5059;DHT22;2548;52.050;11.036;2022-10-31T09:28:24;15.60;99.90
5059;DHT22;2548;52.050;11.036;2022-10-31T09:30:53;15.70;99.90
5059;DHT22;2548;52.050;11.036;2022-10-31T09:33:40;15.80;99.90
5059;DHT22;2548;52.050;11.036;2022-10-31T09:36:31;15.80;99.90
5059;DHT22;2548;52.050;11.036;2022-10-31T09:39:00;15.90;99.90
5059;DHT22;2548;52.050;11.036;2022-10-31T09:41:44;16.00;99.90
5059;DHT22;2548;52.050;11.036;2022-10-31T09:44:20;16.10;99.90
5059;DHT22;2548;52.050;11.036;2022-10-31T09:46:56;16.10;99.90
5059;DHT22;2548;52.050;11.036;2022-10-31T09:49:40;16.30;99.90
5059;DHT22;2548;52.050;11.036;2022-10-31T09:52:16;16.40;99.90
5059;DHT22;2548;52.050;11.036;2022-10-31T09:54:49;16.40;99.90
5059;DHT22;2548;52.050;11.036;2022-10-31T09:57:25;16.50;99.90
5059;DHT22;2548;52.050;11.036;2022-10-31T09:59:54;16.60;99.90
5059;DHT22;2548;52.050;11.036;2022-10-31T10:02:27;16.60;99.90
5059;DHT22;2548;52.050;11.036;2022-10-31T10:04:57;16.60;99.90
5059;DHT22;2548;52.050;11.036;2022-10-31T10:07:33;16.70;99.90
5059;DHT22;2548;52.050;11.036;2022-10-31T10:10:25;16.70;99.90
5059;DHT22;2548;52.050;11.036;2022-10-31T10:13:36;16.70;99.90
5059;DHT22;2548;52.050;11.036;2022-10-31T10:16:21;16.70;99.90
5059;DHT22;2548;52.050;11.036;2022-10-31T10:19:01;16.80;99.90
5059;DHT22;2548;52.050;11.036;2022-10-31T10:21:37;16.90;99.90
5059;DHT22;2548;52.050;11.036;2022-10-31T10:24:21;16.90;99.90
5059;DHT22;2548;52.050;11.036;2022-10-31T10:26:59;17.00;99.90
5059;DHT22;2548;52.050;11.036;2022-10-31T10:29:33;17.00;99.90
5059;DHT22;2548;52.050;11.036;2022-10-31T10:32:13;17.10;99.90
5059;DHT22;2548;52.050;11.036;2022-10-31T10:34:47;17.20;99.90
5059;DHT22;2548;52.050;11.036;2022-10-31T10:37:23;17.30;99.90
5059;DHT22;2548;52.050;11.036;2022-10-31T10:39:55;17.40;99.90
5059;DHT22;2548;52.050;11.036;2022-10-31T10:42:27;17.50;99.90
5059;DHT22;2548;52.050;11.036;2022-10-31T10:45:17;17.50;99.90
5059;DHT22;2548;52.050;11.036;2022-10-31T10:48:08;17.50;99.90
5059;DHT22;2548;52.050;11.036;2022-10-31T10:50:42;17.40;99.90
5059;DHT22;2548;52.050;11.036;2022-10-31T10:53:22;17.60;99.90
5059;DHT22;2548;52.050;11.036;2022-10-31T10:56:06;17.50;99.90
5059;DHT22;2548;52.050;11.036;2022-10-31T10:58:38;17.70;99.90
5059;DHT22;2548;52.050;11.036;2022-10-31T11:01:10;17.70;99.90
5059;DHT22;2548;52.050;11.036;2022-10-31T11:03:39;17.70;99.90
5059;DHT22;2548;52.050;11.036;2022-10-31T11:06:17;17.80;99.90
5059;DHT22;2548;52.050;11.036;2022-10-31T11:08:48;17.90;99.90
5059;DHT22;2548;52.050;11.036;2022-10-31T11:11:23;18.00;99.90
5059;DHT22;2548;52.050;11.036;2022-10-31T11:14:00;18.20;99.90
5059;DHT22;2548;52.050;11.036;2022-10-31T11:16:32;18.30;99.90
5059;DHT22;2548;52.050;11.036;2022-10-31T11:19:12;18.30;99.90
5059;DHT22;2548;52.050;11.036;2022-10-31T11:21:41;18.40;99.90
5059;DHT22;2548;52.050;11.036;2022-10-31T11:24:15;18.40;99.90
5059;DHT22;2548;52.050;11.036;2022-10-31T11:26:44;18.40;99.90
5059;DHT22;2548;52.050;11.036;2022-10-31T11:29:20;18.50;99.90
5059;DHT22;2548;52.050;11.036;2022-10-31T11:31:51;18.50;99.90
5059;DHT22;2548;52.050;11.036;2022-10-31T11:34:29;18.70;99.90
5059;DHT22;2548;52.050;11.036;2022-10-31T11:37:03;18.70;99.90
5059;DHT22;2548;52.050;11.036;2022-10-31T11:39:31;18.60;99.90
5059;DHT22;2548;52.050;11.036;2022-10-31T11:42:01;18.60;99.90
5059;DHT22;2548;52.050;11.036;2022-10-31T11:44:30;18.60;99.90
5059;DHT22;2548;52.050;11.036;2022-10-31T11:47:01;18.60;99.90
5059;DHT22;2548;52.050;11.036;2022-10-31T11:49:31;18.60;99.90
5059;DHT22;2548;52.050;11.036;2022-10-31T11:52:05;18.70;99.90
5059;DHT22;2548;52.050;11.036;2022-10-31T11:54:38;18.70;99.90
5059;DHT22;2548;52.050;11.036;2022-10-31T11:57:25;18.80;99.90
5059;DHT22;2548;52.050;11.036;2022-10-31T11:59:56;18.90;99.90
5059;DHT22;2548;52.050;11.036;2022-10-31T12:02:24;18.90;99.90
5059;DHT22;2548;52.050;11.036;2022-10-31T12:04:58;19.00;99.90
5059;DHT22;2548;52.050;11.036;2022-10-31T12:07:27;19.00;99.90
5059;DHT22;2548;52.050;11.036;2022-10-31T12:09:54;19.00;99.90
5059;DHT22;2548;52.050;11.036;2022-10-31T12:12:38;19.00;99.90
5059;DHT22;2548;52.050;11.036;2022-10-31T12:15:27;19.10;99.90
5059;DHT22;2548;52.050;11.036;2022-10-31T12:21:02;19.00;99.90
5059;DHT22;2548;52.050;11.036;2022-10-31T12:23:38;18.90;99.90
5059;DHT22;2548;52.050;11.036;2022-10-31T12:26:17;18.70;99.90
5059;DHT22;2548;52.050;11.036;2022-10-31T12:29:02;18.60;99.90
5059;DHT22;2548;52.050;11.036;2022-10-31T12:31:42;18.50;99.90
5059;DHT22;2548;52.050;11.036;2022-10-31T12:37:20;18.40;99.90
5059;DHT22;2548;52.050;11.036;2022-10-31T12:39:56;18.30;99.90
5059;DHT22;2548;52.050;11.036;2022-10-31T12:42:45;18.20;99.90
5059;DHT22;2548;52.050;11.036;2022-10-31T12:45:33;18.10;99.90
5059;DHT22;2548;52.050;11.036;2022-10-31T12:51:11;17.90;99.90
5059;DHT22;2548;52.050;11.036;2022-10-31T12:53:54;17.90;99.90
5059;DHT22;2548;52.050;11.036;2022-10-31T12:56:35;17.80;99.90
5059;DHT22;2548;52.050;11.036;2022-10-31T12:59:12;17.70;99.90
5059;DHT22;2548;52.050;11.036;2022-10-31T13:01:47;17.60;99.90
5059;DHT22;2548;52.050;11.036;2022-10-31T13:04:30;17.40;99.90
5059;DHT22;2548;52.050;11.036;2022-10-31T13:07:03;17.30;99.90
5059;DHT22;2548;52.050;11.036;2022-10-31T13:09:38;17.20;99.90
5059;DHT22;2548;52.050;11.036;2022-10-31T13:12:09;17.10;99.90
5059;DHT22;2548;52.050;11.036;2022-10-31T13:14:39;17.00;99.90
5059;DHT22;2548;52.050;11.036;2022-10-31T13:17:12;17.00;99.90
5059;DHT22;2548;52.050;11.036;2022-10-31T13:19:45;16.90;99.90
5059;DHT22;2548;52.050;11.036;2022-10-31T13:22:17;16.90;99.90
5059;DHT22;2548;52.050;11.036;2022-10-31T13:24:51;16.80;99.90
5059;DHT22;2548;52.050;11.036;2022-10-31T13:27:23;16.70;99.90
5059;DHT22;2548;52.050;11.036;2022-10-31T13:29:58;16.60;99.90
5059;DHT22;2548;52.050;11.036;2022-10-31T13:32:30;16.50;99.90
5059;DHT22;2548;52.050;11.036;2022-10-31T13:35:09;16.50;99.90
5059;DHT22;2548;52.050;11.036;2022-10-31T13:37:42;16.50;99.90
5059;DHT22;2548;52.050;11.036;2022-10-31T13:40:18;16.40;99.90
5059;DHT22;2548;52.050;11.036;2022-10-31T13:42:57;16.40;99.90
5059;DHT22;2548;52.050;11.036;2022-10-31T13:45:26;16.30;99.90
5059;DHT22;2548;52.050;11.036;2022-10-31T13:47:59;16.20;99.90
5059;DHT22;2548;52.050;11.036;2022-10-31T13:50:29;16.00;99.90
5059;DHT22;2548;52.050;11.036;2022-10-31T13:53:20;15.90;99.90
5059;DHT22;2548;52.050;11.036;2022-10-31T13:55:49;15.80;99.90
5059;DHT22;2548;52.050;11.036;2022-10-31T13:58:25;15.70;99.90
5059;DHT22;2548;52.050;11.036;2022-10-31T14:01:15;15.60;99.90
5059;DHT22;2548;52.050;11.036;2022-10-31T14:03:45;15.50;99.90
5059;DHT22;2548;52.050;11.036;2022-10-31T14:06:15;15.50;99.90
5059;DHT22;2548;52.050;11.036;2022-10-31T14:08:49;15.40;99.90
5059;DHT22;2548;52.050;11.036;2022-10-31T14:11:22;15.40;99.90
5059;DHT22;2548;52.050;11.036;2022-10-31T14:13:53;15.40;99.90
5059;DHT22;2548;52.050;11.036;2022-10-31T14:16:24;15.30;99.90
5059;DHT22;2548;52.050;11.036;2022-10-31T14:18:58;15.30;99.90
5059;DHT22;2548;52.050;11.036;2022-10-31T14:21:30;15.20;99.90
5059;DHT22;2548;52.050;11.036;2022-10-31T14:23:58;15.20;99.90
5059;DHT22;2548;52.050;11.036;2022-10-31T14:26:34;15.20;99.90
5059;DHT22;2548;52.050;11.036;2022-10-31T14:29:23;15.20;99.90
5059;DHT22;2548;52.050;11.036;2022-10-31T14:32:01;15.20;99.90
5059;DHT22;2548;52.050;11.036;2022-10-31T14:34:34;15.10;99.90
5059;DHT22;2548;52.050;11.036;2022-10-31T14:37:39;15.00;99.90
5059;DHT22;2548;52.050;11.036;2022-10-31T14:40:29;15.00;99.90
5059;DHT22;2548;52.050;11.036;2022-10-31T14:43:30;15.00;99.90
5059;DHT22;2548;52.050;11.036;2022-10-31T14:46:03;15.00;99.90
5059;DHT22;2548;52.050;11.036;2022-10-31T14:48:51;14.90;99.90
5059;DHT22;2548;52.050;11.036;2022-10-31T14:51:26;14.90;99.90
5059;DHT22;2548;52.050;11.036;2022-10-31T14:53:59;14.90;99.90
5059;DHT22;2548;52.050;11.036;2022-10-31T14:56:29;14.80;99.90
5059;DHT22;2548;52.050;11.036;2022-10-31T14:58:59;14.80;99.90
5059;DHT22;2548;52.050;11.036;2022-10-31T15:01:28;14.70;99.90
5059;DHT22;2548;52.050;11.036;2022-10-31T15:04:00;14.70;99.90
5059;DHT22;2548;52.050;11.036;2022-10-31T15:06:38;14.70;99.90
5059;DHT22;2548;52.050;11.036;2022-10-31T15:09:22;14.70;99.90
5059;DHT22;2548;52.050;11.036;2022-10-31T15:11:50;14.70;99.90
5059;DHT22;2548;52.050;11.036;2022-10-31T15:14:23;14.60;99.90
5059;DHT22;2548;52.050;11.036;2022-10-31T15:16:51;14.60;99.90
5059;DHT22;2548;52.050;11.036;2022-10-31T15:19:22;14.60;99.90
5059;DHT22;2548;52.050;11.036;2022-10-31T15:21:52;14.60;99.90
5059;DHT22;2548;52.050;11.036;2022-10-31T15:24:23;14.50;99.90
5059;DHT22;2548;52.050;11.036;2022-10-31T15:26:52;14.50;99.90
5059;DHT22;2548;52.050;11.036;2022-10-31T15:29:22;14.50;99.90
5059;DHT22;2548;52.050;11.036;2022-10-31T15:31:51;14.50;99.90
5059;DHT22;2548;52.050;11.036;2022-10-31T15:34:26;14.40;99.90
5059;DHT22;2548;52.050;11.036;2022-10-31T15:36:55;14.50;99.90
5059;DHT22;2548;52.050;11.036;2022-10-31T15:39:23;14.50;99.90
5059;DHT22;2548;52.050;11.036;2022-10-31T15:41:52;14.50;99.90
5059;DHT22;2548;52.050;11.036;2022-10-31T15:44:22;14.40;99.90
5059;DHT22;2548;52.050;11.036;2022-10-31T15:46:58;14.40;99.90
5059;DHT22;2548;52.050;11.036;2022-10-31T15:49:31;14.50;99.90
5059;DHT22;2548;52.050;11.036;2022-10-31T15:52:10;14.40;99.90
5059;DHT22;2548;52.050;11.036;2022-10-31T15:54:46;14.40;99.90
5059;DHT22;2548;52.050;11.036;2022-10-31T15:57:14;14.40;99.90
5059;DHT22;2548;52.050;11.036;2022-10-31T15:59:45;14.40;99.90
5059;DHT22;2548;52.050;11.036;2022-10-31T16:02:17;14.40;99.90
5059;DHT22;2548;52.050;11.036;2022-10-31T16:04:49;14.30;99.90
5059;DHT22;2548;52.050;11.036;2022-10-31T16:07:19;14.20;99.90
5059;DHT22;2548;52.050;11.036;2022-10-31T16:09:52;14.20;99.90
5059;DHT22;2548;52.050;11.036;2022-10-31T16:12:21;14.20;99.90
5059;DHT22;2548;52.050;11.036;2022-10-31T16:14:50;14.20;99.90
5059;DHT22;2548;52.050;11.036;2022-10-31T16:17:21;14.20;99.90
5059;DHT22;2548;52.050;11.036;2022-10-31T16:19:52;14.20;99.90
5059;DHT22;2548;52.050;11.036;2022-10-31T16:22:24;14.20;99.90
5059;DHT22;2548;52.050;11.036;2022-10-31T16:24:58;14.20;99.90
5059;DHT22;2548;52.050;11.036;2022-10-31T16:27:30;14.10;99.90
5059;DHT22;2548;52.050;11.036;2022-10-31T16:29:59;14.10;99.90
5059;DHT22;2548;52.050;11.036;2022-10-31T16:32:32;14.10;99.90
5059;DHT22;2548;52.050;11.036;2022-10-31T16:35:17;14.10;99.90
5059;DHT22;2548;52.050;11.036;2022-10-31T16:37:45;14.00;99.90
5059;DHT22;2548;52.050;11.036;2022-10-31T16:40:14;14.00;99.90
5059;DHT22;2548;52.050;11.036;2022-10-31T16:42:43;14.00;99.90